sensor_id;sensor_type;location;lat;lon;timestamp;P1;durP1;ratioP1;P2;durP2;ratioP2
3831;SDS011;12460;42.662;23.288;2024-03-08T00:06:25;7.37;;;5.00;;
3831;SDS011;12460;42.662;23.288;2024-03-08T00:21:27;6.27;;;4.83;;
3831;SDS011;12460;42.662;23.288;2024-03-08T00:36:29;3.90;;;3.50;;
3831;SDS011;12460;42.662;23.288;2024-03-08T00:51:31;3.30;;;3.00;;
3831;SDS011;12460;42.662;23.288;2024-03-08T01:06:34;2.60;;;2.40;;
3831;SDS011;12460;42.662;23.288;2024-03-08T01:21:36;2.90;;;2.70;;
3831;SDS011;12460;42.662;23.288;2024-03-08T01:36:37;3.00;;;2.70;;
3831;SDS011;12460;42.662;23.288;2024-03-08T01:51:40;2.30;;;2.20;;
3831;SDS011;12460;42.662;23.288;2024-03-08T02:06:42;2.23;;;2.13;;
3831;SDS011;12460;42.662;23.288;2024-03-08T02:21:44;2.10;;;2.00;;
3831;SDS011;12460;42.662;23.288;2024-03-08T02:36:49;2.10;;;2.00;;
3831;SDS011;12460;42.662;23.288;2024-03-08T02:51:50;2.33;;;2.23;;
3831;SDS011;12460;42.662;23.288;2024-03-08T03:06:52;2.77;;;2.57;;
3831;SDS011;12460;42.662;23.288;2024-03-08T03:21:55;2.90;;;2.60;;
3831;SDS011;12460;42.662;23.288;2024-03-08T03:36:56;1.80;;;1.70;;
3831;SDS011;12460;42.662;23.288;2024-03-08T03:51:59;1.70;;;1.60;;
3831;SDS011;12460;42.662;23.288;2024-03-08T04:07:01;2.10;;;1.77;;
3831;SDS011;12460;42.662;23.288;2024-03-08T04:22:03;1.43;;;1.43;;
3831;SDS011;12460;42.662;23.288;2024-03-08T04:37:06;1.70;;;1.60;;
3831;SDS011;12460;42.662;23.288;2024-03-08T04:52:12;2.10;;;2.00;;
3831;SDS011;12460;42.662;23.288;2024-03-08T05:07:14;3.47;;;3.17;;
3831;SDS011;12460;42.662;23.288;2024-03-08T05:22:15;4.10;;;3.53;;
3831;SDS011;12460;42.662;23.288;2024-03-08T05:37:18;4.27;;;3.87;;
3831;SDS011;12460;42.662;23.288;2024-03-08T05:52:22;4.50;;;4.10;;
3831;SDS011;12460;42.662;23.288;2024-03-08T06:07:24;4.87;;;4.37;;
3831;SDS011;12460;42.662;23.288;2024-03-08T06:22:25;5.93;;;4.77;;
3831;SDS011;12460;42.662;23.288;2024-03-08T06:37:27;9.80;;;5.97;;
3831;SDS011;12460;42.662;23.288;2024-03-08T06:52:29;7.83;;;6.13;;
3831;SDS011;12460;42.662;23.288;2024-03-08T07:07:31;8.70;;;7.13;;
3831;SDS011;12460;42.662;23.288;2024-03-08T07:22:35;9.30;;;7.07;;
3831;SDS011;12460;42.662;23.288;2024-03-08T07:37:38;5.47;;;4.90;;
3831;SDS011;12460;42.662;23.288;2024-03-08T07:52:41;5.53;;;5.03;;
3831;SDS011;12460;42.662;23.288;2024-03-08T08:07:46;7.57;;;6.33;;
3831;SDS011;12460;42.662;23.288;2024-03-08T08:22:51;8.00;;;6.00;;
3831;SDS011;12460;42.662;23.288;2024-03-08T08:37:53;7.80;;;5.90;;
3831;SDS011;12460;42.662;23.288;2024-03-08T08:52:55;7.40;;;6.53;;
3831;SDS011;12460;42.662;23.288;2024-03-08T09:07:57;10.20;;;7.87;;
3831;SDS011;12460;42.662;23.288;2024-03-08T09:22:59;6.20;;;5.60;;
3831;SDS011;12460;42.662;23.288;2024-03-08T09:38:01;5.60;;;5.07;;
3831;SDS011;12460;42.662;23.288;2024-03-08T09:53:04;5.60;;;5.10;;
3831;SDS011;12460;42.662;23.288;2024-03-08T10:08:09;3.53;;;3.23;;
3831;SDS011;12460;42.662;23.288;2024-03-08T10:23:12;4.37;;;3.97;;
3831;SDS011;12460;42.662;23.288;2024-03-08T10:38:14;4.73;;;4.13;;
3831;SDS011;12460;42.662;23.288;2024-03-08T10:53:21;4.60;;;4.07;;
3831;SDS011;12460;42.662;23.288;2024-03-08T11:08:25;3.90;;;3.53;;
3831;SDS011;12460;42.662;23.288;2024-03-08T11:23:27;3.90;;;3.50;;
3831;SDS011;12460;42.662;23.288;2024-03-08T11:38:32;3.50;;;3.20;;
3831;SDS011;12460;42.662;23.288;2024-03-08T11:53:34;3.50;;;3.20;;
3831;SDS011;12460;42.662;23.288;2024-03-08T12:08:37;4.50;;;3.53;;
3831;SDS011;12460;42.662;23.288;2024-03-08T12:23:39;3.90;;;3.50;;
3831;SDS011;12460;42.662;23.288;2024-03-08T12:38:44;3.67;;;3.40;;
3831;SDS011;12460;42.662;23.288;2024-03-08T12:53:50;3.13;;;2.90;;
3831;SDS011;12460;42.662;23.288;2024-03-08T13:08:57;3.27;;;3.07;;
3831;SDS011;12460;42.662;23.288;2024-03-08T13:24:06;3.40;;;3.20;;
3831;SDS011;12460;42.662;23.288;2024-03-08T13:39:08;3.87;;;3.47;;
3831;SDS011;12460;42.662;23.288;2024-03-08T13:54:16;3.30;;;3.10;;
3831;SDS011;12460;42.662;23.288;2024-03-08T14:09:18;3.37;;;3.10;;
3831;SDS011;12460;42.662;23.288;2024-03-08T14:24:20;3.13;;;2.83;;
3831;SDS011;12460;42.662;23.288;2024-03-08T14:39:22;3.10;;;2.90;;
3831;SDS011;12460;42.662;23.288;2024-03-08T14:54:27;3.60;;;3.30;;
3831;SDS011;12460;42.662;23.288;2024-03-08T15:09:29;4.00;;;3.03;;
3831;SDS011;12460;42.662;23.288;2024-03-08T15:24:31;4.73;;;4.33;;
3831;SDS011;12460;42.662;23.288;2024-03-08T15:39:33;3.80;;;3.50;;
3831;SDS011;12460;42.662;23.288;2024-03-08T15:54:36;4.03;;;3.73;;
3831;SDS011;12460;42.662;23.288;2024-03-08T16:09:41;4.40;;;4.00;;
3831;SDS011;12460;42.662;23.288;2024-03-08T16:24:43;4.97;;;4.50;;
3831;SDS011;12460;42.662;23.288;2024-03-08T16:39:46;4.97;;;4.47;;
3831;SDS011;12460;42.662;23.288;2024-03-08T16:54:47;5.70;;;5.10;;
3831;SDS011;12460;42.662;23.288;2024-03-08T17:09:57;6.03;;;5.20;;
3831;SDS011;12460;42.662;23.288;2024-03-08T17:24:59;7.47;;;6.10;;
3831;SDS011;12460;42.662;23.288;2024-03-08T17:40:00;5.73;;;5.13;;
3831;SDS011;12460;42.662;23.288;2024-03-08T17:55:06;8.33;;;5.80;;
3831;SDS011;12460;42.662;23.288;2024-03-08T18:10:10;10.57;;;6.60;;
3831;SDS011;12460;42.662;23.288;2024-03-08T18:25:23;9.13;;;7.10;;
3831;SDS011;12460;42.662;23.288;2024-03-08T18:40:28;8.53;;;6.77;;
3831;SDS011;12460;42.662;23.288;2024-03-08T18:55:30;11.60;;;8.07;;
3831;SDS011;12460;42.662;23.288;2024-03-08T19:10:34;9.53;;;6.10;;
3831;SDS011;12460;42.662;23.288;2024-03-08T19:25:37;7.33;;;6.00;;
3831;SDS011;12460;42.662;23.288;2024-03-08T19:40:46;8.13;;;5.93;;
3831;SDS011;12460;42.662;23.288;2024-03-08T19:55:48;8.37;;;6.50;;
3831;SDS011;12460;42.662;23.288;2024-03-08T20:10:53;9.13;;;6.13;;
3831;SDS011;12460;42.662;23.288;2024-03-08T20:25:56;7.33;;;5.87;;
3831;SDS011;12460;42.662;23.288;2024-03-08T20:40:57;6.83;;;5.80;;
3831;SDS011;12460;42.662;23.288;2024-03-08T20:55:59;6.73;;;5.90;;
3831;SDS011;12460;42.662;23.288;2024-03-08T21:11:04;10.33;;;7.17;;
3831;SDS011;12460;42.662;23.288;2024-03-08T21:26:06;8.57;;;6.70;;
3831;SDS011;12460;42.662;23.288;2024-03-08T21:41:10;11.93;;;7.80;;
3831;SDS011;12460;42.662;23.288;2024-03-08T21:56:14;9.63;;;7.70;;
3831;SDS011;12460;42.662;23.288;2024-03-08T22:11:16;10.60;;;8.13;;
3831;SDS011;12460;42.662;23.288;2024-03-08T22:26:18;19.13;;;14.10;;
3831;SDS011;12460;42.662;23.288;2024-03-08T22:41:20;24.43;;;17.30;;
3831;SDS011;12460;42.662;23.288;2024-03-08T22:56:22;24.23;;;16.17;;
3831;SDS011;12460;42.662;23.288;2024-03-08T23:11:24;24.03;;;15.23;;
3831;SDS011;12460;42.662;23.288;2024-03-08T23:26:27;23.13;;;15.53;;
3831;SDS011;12460;42.662;23.288;2024-03-08T23:41:29;17.57;;;13.00;;
3831;SDS011;12460;42.662;23.288;2024-03-08T23:56:31;17.70;;;12.53;;
